Angle Inlet, Minnesota
Current Conditions -  °F | °C
As of 4:34 PM on Friday 19 Dec 2014 (Local Time) from KFGN Reporting Station
Light Snow Light Snow  
Wind Chill: -11°   Ceiling: 900
Heat Index: -5°   Visibility: 5mi
Dew Point: -6°   Wind: 12mph
Humidity: 93%   Direction: 160°SSE
Pressure: 30.07"   Gusts: NA
Location:  49.35°N, 95.08°W
Report Text: KFGN 192234Z AUTO 16010KT 5SM -SN OVC009 M05/M06 A3007 RMK AO2
Loading
Personal Weather Stations






























Interactive Weather Map New forecast layout! Learn more

10-Day Weather Forecast

Advertisements
Track Severe Weather on mobile